createdAt,value
2023-04-24T00:01:24.484Z,99240.45
2023-04-24T00:03:52.876Z,99242.41
2023-04-24T00:06:21.188Z,99243.36
2023-04-24T00:08:50.661Z,99242.19
2023-04-24T00:11:19.848Z,99243.16
2023-04-24T00:13:47.435Z,99239.30
2023-04-24T00:16:17.002Z,99233.44
2023-04-24T00:23:16.101Z,99226.81
2023-04-24T00:25:45.653Z,99221.73
2023-04-24T00:28:16.132Z,99225.39
2023-04-24T00:30:45.903Z,99227.52
2023-04-24T00:33:17.055Z,99225.04
2023-04-24T00:35:47.628Z,99223.67
2023-04-24T00:38:18.692Z,99222.84
2023-04-24T00:40:49.837Z,99224.33
2023-04-24T00:43:19.088Z,99223.45
2023-04-24T00:45:48.591Z,99221.95
2023-04-24T00:48:17.133Z,99221.24
2023-04-24T00:50:48.239Z,99220.84
2023-04-24T00:53:17.824Z,99224.98
2023-04-24T00:55:46.909Z,99224.21
2023-04-24T00:58:19.601Z,99221.48
2023-04-24T01:00:50.260Z,99221.34
2023-04-24T01:03:20.613Z,99219.16
2023-04-24T01:05:50.266Z,99224.95
2023-04-24T01:08:19.984Z,99225.07
2023-04-24T01:10:54.120Z,99224.19
2023-04-24T01:13:23.816Z,99223.11
2023-04-24T01:15:55.586Z,99223.23
2023-04-24T01:18:24.988Z,99220.94
2023-04-24T01:20:55.015Z,99219.86
2023-04-24T01:23:24.718Z,99218.16
2023-04-24T01:25:54.310Z,99215.88
2023-04-24T01:28:28.107Z,99216.72
2023-04-24T01:31:00.346Z,99212.09
2023-04-24T01:33:29.757Z,99214.13
2023-04-24T01:35:58.798Z,99213.57
2023-04-24T01:38:28.857Z,99207.52
2023-04-24T01:40:56.303Z,99208.92
2023-04-24T01:43:27.266Z,99205.20
2023-04-24T01:45:55.403Z,99204.73
2023-04-24T01:48:26.225Z,99204.93
2023-04-24T01:50:57.551Z,99201.60
2023-04-24T01:53:25.905Z,99202.60
2023-04-24T01:55:58.156Z,99204.83
2023-04-24T01:58:29.317Z,99198.32
2023-04-24T02:01:00.001Z,99197.13
2023-04-24T02:03:29.008Z,99197.60
2023-04-24T02:06:00.282Z,99197.27
2023-04-24T02:08:27.982Z,99195.52
2023-04-24T02:10:57.950Z,99193.48
2023-04-24T02:13:28.153Z,99188.14
2023-04-24T02:15:59.415Z,99181.22
2023-04-24T02:18:28.278Z,99184.75
2023-04-24T02:20:58.621Z,99178.67
2023-04-24T02:23:27.909Z,99181.31
2023-04-24T02:25:58.250Z,99177.55
2023-04-24T02:28:26.627Z,99174.64
2023-04-24T02:30:56.177Z,99172.91
2023-04-24T02:33:23.779Z,99167.60
2023-04-24T02:35:54.007Z,99167.41
2023-04-24T02:38:23.302Z,99165.21
2023-04-24T02:40:54.962Z,99159.23
2023-04-24T02:43:23.918Z,99157.67
2023-04-24T02:45:54.459Z,99159.80
2023-04-24T02:48:22.951Z,99164.20
2023-04-24T02:50:51.926Z,99162.16
2023-04-24T02:53:22.784Z,99167.04
2023-04-24T02:55:50.922Z,99163.83
2023-04-24T02:58:20.563Z,99161.70
2023-04-24T03:00:50.678Z,99159.38
2023-04-24T03:03:19.809Z,99161.39
2023-04-24T03:05:49.450Z,99163.26
2023-04-24T03:08:20.625Z,99160.41
2023-04-24T03:10:52.786Z,99160.50
2023-04-24T03:13:21.992Z,99157.75
2023-04-24T03:15:51.301Z,99157.41
2023-04-24T03:18:20.746Z,99158.91
2023-04-24T03:20:53.686Z,99158.17
2023-04-24T03:23:22.271Z,99159.27
2023-04-24T03:25:51.944Z,99157.83
2023-04-24T03:28:22.325Z,99156.39
2023-04-24T03:30:57.047Z,99157.43
2023-04-24T03:33:25.520Z,99156.16
2023-04-24T03:36:02.308Z,99156.58
2023-04-24T03:38:38.456Z,99155.16
2023-04-24T03:41:23.422Z,99156.41
2023-04-24T03:43:55.302Z,99151.70
2023-04-24T03:46:26.801Z,99153.16
2023-04-24T03:49:00.654Z,99150.87
2023-04-24T03:51:32.243Z,99150.09
2023-04-24T03:54:07.823Z,99148.44
2023-04-24T03:56:39.080Z,99150.95
2023-04-24T03:59:08.454Z,99149.23
2023-04-24T04:01:37.965Z,99148.19
2023-04-24T04:04:17.919Z,99151.44
2023-04-24T04:06:47.461Z,99154.15
2023-04-24T04:09:17.345Z,99159.17
2023-04-24T04:11:46.839Z,99158.06
2023-04-24T04:14:15.075Z,99159.80
2023-04-24T04:16:44.667Z,99160.04
2023-04-24T04:19:15.328Z,99159.91
2023-04-24T04:21:43.150Z,99158.63
2023-04-24T04:24:17.458Z,99162.89
2023-04-24T04:26:47.931Z,99166.22
2023-04-24T04:29:24.537Z,99167.75
2023-04-24T04:31:53.989Z,99169.40
2023-04-24T04:34:23.348Z,99169.58
2023-04-24T04:36:52.340Z,99173.55
2023-04-24T04:39:29.436Z,99171.69
2023-04-24T04:42:03.115Z,99176.68
2023-04-24T04:44:45.716Z,99173.41
2023-04-24T04:48:07.990Z,99173.95
2023-04-24T04:51:58.343Z,99175.98
2023-04-24T04:54:52.181Z,99176.48
2023-04-24T04:57:25.195Z,99175.63
2023-04-24T05:00:00.960Z,99180.05
2023-04-24T05:03:18.685Z,99177.94
2023-04-24T05:06:03.165Z,99174.13
2023-04-24T05:08:38.688Z,99174.42
2023-04-24T05:11:14.809Z,99176.57
2023-04-24T05:13:46.241Z,99175.60
2023-04-24T05:16:42.890Z,99176.21
2023-04-24T05:19:15.436Z,99173.54
2023-04-24T05:21:44.093Z,99176.05
2023-04-24T05:24:13.966Z,99171.34
2023-04-24T05:27:10.165Z,99171.60
2023-04-24T05:30:03.008Z,99175.26
2023-04-24T05:32:33.097Z,99173.02
2023-04-24T05:35:01.067Z,99170.83
2023-04-24T05:37:35.536Z,99161.85
2023-04-24T05:40:06.532Z,99166.81
2023-04-24T05:42:36.628Z,99173.03
2023-04-24T05:45:07.761Z,99169.27
2023-04-24T05:47:39.775Z,99166.55
2023-04-24T05:50:09.897Z,99163.27
2023-04-24T05:52:39.487Z,99166.77
2023-04-24T05:55:23.202Z,99159.70
2023-04-24T05:57:53.862Z,99154.56
2023-04-24T06:00:23.652Z,99148.30
2023-04-24T06:02:55.220Z,99146.01
2023-04-24T06:05:26.064Z,99145.04
2023-04-24T06:07:56.044Z,99142.54
2023-04-24T06:10:26.900Z,99142.09
2023-04-24T06:13:02.633Z,99142.23
2023-04-24T06:15:33.777Z,99142.17
2023-04-24T06:18:07.389Z,99138.59
2023-04-24T06:20:35.376Z,99142.04
2023-04-24T06:23:04.217Z,99142.27
2023-04-24T06:25:34.756Z,99146.93
2023-04-24T06:28:03.512Z,99141.10
2023-04-24T06:30:35.889Z,99136.39
2023-04-24T06:33:19.335Z,99137.14
2023-04-24T06:35:52.098Z,99132.05
2023-04-24T06:38:21.645Z,99129.73
2023-04-24T06:40:52.158Z,99124.23
2023-04-24T06:43:21.053Z,99126.00
2023-04-24T06:45:53.940Z,99119.69
2023-04-24T06:48:25.327Z,99120.78
2023-04-24T06:50:57.246Z,99119.08
2023-04-24T06:53:24.689Z,99119.21
2023-04-24T06:55:54.105Z,99119.23
2023-04-24T06:58:22.973Z,99119.54
2023-04-24T07:00:51.951Z,99118.39
2023-04-24T07:03:33.526Z,99118.20
2023-04-24T07:06:07.619Z,99115.69
2023-04-24T07:08:38.623Z,99106.36
2023-04-24T07:11:14.408Z,99103.70
2023-04-24T07:13:46.197Z,99105.08
2023-04-24T07:16:25.289Z,99107.70
2023-04-24T07:18:55.152Z,99109.48
2023-04-24T07:21:26.321Z,99104.57
2023-04-24T07:23:55.984Z,99107.52
2023-04-24T07:40:02.834Z,99103.75
2023-04-24T07:42:31.797Z,99103.95
2023-04-24T07:45:02.766Z,99105.22
2023-04-24T07:47:31.958Z,99096.02
2023-04-24T07:50:04.403Z,99098.23
2023-04-24T07:52:34.045Z,99093.85
2023-04-24T07:55:06.494Z,99093.91
2023-04-24T07:57:37.104Z,99090.59
2023-04-24T08:00:07.010Z,99088.20
2023-04-24T08:02:44.954Z,99081.55
2023-04-24T08:05:12.783Z,99073.73
2023-04-24T08:07:46.110Z,99079.23
2023-04-24T08:10:17.900Z,99074.39
2023-04-24T08:12:48.869Z,99077.13
2023-04-24T08:15:17.444Z,99077.84
2023-04-24T08:24:30.435Z,99070.14
2023-04-24T08:26:59.192Z,99070.91
2023-04-24T08:29:28.473Z,99070.20
2023-04-24T08:31:57.677Z,99070.36
2023-04-24T08:34:28.467Z,99071.37
2023-04-24T08:36:59.364Z,99073.43
2023-04-24T08:39:34.817Z,99070.34
2023-04-24T08:42:08.708Z,99067.69
2023-04-24T08:44:39.277Z,99065.56
2023-04-24T08:47:10.144Z,99061.59
2023-04-24T08:49:39.885Z,99060.45
2023-04-24T08:52:07.985Z,99060.81
2023-04-24T08:54:38.775Z,99056.01
2023-04-24T08:57:09.863Z,99062.36
2023-04-24T08:59:41.353Z,99054.73
2023-04-24T09:02:12.817Z,99055.16
2023-04-24T09:04:43.644Z,99053.95
2023-04-24T09:07:16.151Z,99050.94
2023-04-24T09:09:46.184Z,99052.30
2023-04-24T09:12:17.054Z,99056.75
2023-04-24T09:14:48.710Z,99057.30
2023-04-24T09:17:42.108Z,99055.19
2023-04-24T09:20:13.716Z,99054.19
2023-04-24T09:22:48.779Z,99053.59
2023-04-24T09:28:59.350Z,99048.36
2023-04-24T09:31:33.665Z,99046.67
2023-04-24T09:34:08.578Z,99043.64
2023-04-24T09:36:45.452Z,99038.17
2023-04-24T09:39:44.315Z,99040.71
2023-04-24T09:42:35.107Z,99034.66
2023-04-24T09:45:15.572Z,99040.29
2023-04-24T09:47:46.263Z,99041.40
2023-04-24T09:50:20.979Z,99035.92
2023-04-24T09:53:01.414Z,99034.45
2023-04-24T09:55:41.379Z,99035.21
2023-04-24T09:58:11.110Z,99036.13
2023-04-24T10:01:00.975Z,99034.09
2023-04-24T10:03:37.249Z,99025.84
2023-04-24T10:32:29.493Z,99025.14
2023-04-24T10:35:39.495Z,99027.48
2023-04-24T10:38:10.381Z,99026.20
2023-04-24T10:40:40.335Z,99028.02
2023-04-24T10:43:10.243Z,99026.97
2023-04-24T10:45:41.998Z,99024.08
2023-04-24T10:48:21.835Z,99022.38
2023-04-24T10:50:56.744Z,99021.03
2023-04-24T10:53:52.895Z,99023.88
2023-04-24T10:56:26.510Z,99026.05
2023-04-24T10:58:56.811Z,99025.91
2023-04-24T11:01:31.720Z,99026.09
2023-04-24T11:04:03.474Z,99025.87
2023-04-24T11:06:36.525Z,99021.15
2023-04-24T11:09:13.120Z,99020.53
2023-04-24T11:11:49.483Z,99017.37
2023-04-24T11:14:22.670Z,99012.92
2023-04-24T11:16:54.896Z,99008.41
2023-04-24T11:19:24.692Z,99012.59
2023-04-24T11:22:03.581Z,99015.95
2023-04-24T11:24:58.347Z,99015.71
2023-04-24T11:27:30.730Z,99015.87
2023-04-24T11:29:58.780Z,99011.11
2023-04-24T11:32:32.011Z,99013.31
2023-04-24T11:35:02.798Z,99014.11
2023-04-24T11:37:41.301Z,99013.09
2023-04-24T11:40:12.634Z,99006.55
2023-04-24T11:42:41.475Z,99007.00
2023-04-24T11:45:14.354Z,99011.02
2023-04-24T11:47:42.647Z,99006.13
2023-04-24T11:50:14.051Z,99005.89
2023-04-24T11:52:44.449Z,99008.83
2023-04-24T11:55:16.519Z,99009.35
2023-04-24T11:57:45.890Z,99009.47
2023-04-24T12:00:42.760Z,99009.18
2023-04-24T12:03:12.212Z,99010.20
2023-04-24T12:05:41.169Z,99006.55
2023-04-24T12:08:10.197Z,99004.80
2023-04-24T12:10:38.884Z,99000.19
2023-04-24T12:13:12.020Z,98997.47
2023-04-24T12:15:42.778Z,98999.58
2023-04-24T12:18:20.253Z,98998.92
2023-04-24T12:20:50.522Z,98992.24
2023-04-24T12:23:36.033Z,98986.58
2023-04-24T12:26:07.010Z,98981.75
2023-04-24T12:28:39.544Z,98979.47
2023-04-24T12:31:08.361Z,98981.04
2023-04-24T12:33:37.442Z,98979.49
2023-04-24T12:36:07.172Z,98983.59
2023-04-24T12:38:41.211Z,98982.05
2023-04-24T12:41:12.544Z,98980.46
2023-04-24T12:43:53.337Z,98974.17
2023-04-24T12:46:23.961Z,98976.95
2023-04-24T12:48:53.650Z,98970.44
2023-04-24T12:51:22.932Z,98962.87
2023-04-24T12:53:55.994Z,98957.42
2023-04-24T12:56:39.956Z,98956.59
2023-04-24T12:59:12.403Z,98950.99
2023-04-24T13:01:41.615Z,98945.45
2023-04-24T13:04:10.500Z,98941.36
2023-04-24T13:06:38.977Z,98946.70
2023-04-24T13:09:06.912Z,98942.98
2023-04-24T13:11:37.045Z,98938.25
2023-04-24T13:14:05.795Z,98929.46
2023-04-24T13:16:35.114Z,98928.86
2023-04-24T13:19:07.178Z,98928.37
2023-04-24T13:21:38.578Z,98922.90
2023-04-24T13:24:08.608Z,98921.84
2023-04-24T13:26:38.414Z,98922.34
2023-04-24T13:29:08.299Z,98918.85
2023-04-24T13:31:36.332Z,98913.70
2023-04-24T13:34:05.243Z,98918.02
2023-04-24T13:36:36.055Z,98914.96
2023-04-24T13:39:05.093Z,98914.05
2023-04-24T13:41:36.744Z,98905.52
2023-04-24T13:44:04.529Z,98904.52
2023-04-24T13:46:33.033Z,98899.12
2023-04-24T13:49:02.793Z,98896.09
2023-04-24T13:51:30.421Z,98896.20
2023-04-24T13:54:01.480Z,98892.46
2023-04-24T13:56:33.436Z,98892.81
2023-04-24T13:59:03.694Z,98887.95
2023-04-24T14:01:33.063Z,98882.55
2023-04-24T14:04:02.788Z,98880.23
2023-04-24T14:06:31.940Z,98878.13
2023-04-24T14:09:01.779Z,98875.19
2023-04-24T14:11:32.169Z,98877.02
2023-04-24T14:14:01.151Z,98873.86
2023-04-24T14:16:32.227Z,98870.91
2023-04-24T14:19:01.932Z,98869.41
2023-04-24T14:21:31.727Z,98869.38
2023-04-24T14:24:01.387Z,98868.70
2023-04-24T14:26:31.084Z,98868.91
2023-04-24T14:29:11.715Z,98868.98
2023-04-24T14:31:45.460Z,98866.98
2023-04-24T14:34:22.845Z,98867.10
2023-04-24T14:36:50.932Z,98862.61
2023-04-24T14:39:24.362Z,98858.16
2023-04-24T14:41:54.787Z,98857.52
2023-04-24T14:44:25.591Z,98851.66
2023-04-24T14:47:36.970Z,98849.33
2023-04-24T14:50:05.860Z,98849.48
2023-04-24T14:53:04.496Z,98848.05
2023-04-24T14:55:45.189Z,98840.23
2023-04-24T14:59:00.311Z,98836.38
2023-04-24T15:01:31.475Z,98828.43
2023-04-24T15:04:01.885Z,98825.39
2023-04-24T15:06:35.131Z,98823.54
2023-04-24T15:09:03.197Z,98820.23
2023-04-24T15:11:33.442Z,98821.30
2023-04-24T15:14:04.453Z,98812.79
2023-04-24T15:16:37.042Z,98813.88
2023-04-24T15:19:56.945Z,98815.83
2023-04-24T15:22:53.194Z,98818.29
2023-04-24T15:25:25.704Z,98818.10
2023-04-24T15:27:56.650Z,98816.55
2023-04-24T15:30:27.680Z,98819.30
2023-04-24T15:32:55.486Z,98823.62
2023-04-24T15:35:27.840Z,98824.81
2023-04-24T15:37:57.954Z,98830.07
2023-04-24T15:40:27.020Z,98845.29
2023-04-24T15:42:59.663Z,98855.23
2023-04-24T15:45:30.715Z,98853.06
2023-04-24T15:52:01.501Z,98896.40
2023-04-24T15:54:41.304Z,98900.23
2023-04-24T15:57:59.594Z,98900.13
2023-04-24T16:00:33.896Z,98903.23
2023-04-24T16:03:12.812Z,98910.22
2023-04-24T16:06:07.913Z,98917.98
2023-04-24T16:09:10.966Z,98916.60
2023-04-24T16:11:57.332Z,98921.33
2023-04-24T16:14:30.666Z,98918.84
2023-04-24T16:17:03.236Z,98924.50
2023-04-24T16:19:34.209Z,98918.56
2023-04-24T16:22:03.356Z,98914.20
2023-04-24T16:24:33.476Z,98914.01
2023-04-24T16:27:04.932Z,98907.63
2023-04-24T16:30:09.043Z,98896.48
2023-04-24T16:32:38.534Z,98884.77
2023-04-24T16:35:12.722Z,98881.29
2023-04-24T16:37:57.251Z,98879.70
2023-04-24T16:40:28.114Z,98878.27
2023-04-24T16:42:58.288Z,98876.16
2023-04-24T16:45:29.350Z,98875.70
2023-04-24T16:47:59.534Z,98875.45
2023-04-24T16:50:27.815Z,98870.13
2023-04-24T16:52:57.591Z,98870.11
2023-04-24T16:55:28.166Z,98870.05
2023-04-24T16:57:57.073Z,98868.43
2023-04-24T17:00:26.436Z,98864.51
2023-04-24T17:02:54.803Z,98856.33
2023-04-24T17:05:25.254Z,98852.87
2023-04-24T17:07:56.495Z,98853.41
2023-04-24T17:10:26.803Z,98849.11
2023-04-24T17:12:59.572Z,98850.02
2023-04-24T17:15:27.867Z,98846.09
2023-04-24T17:17:59.080Z,98840.79
2023-04-24T17:20:35.469Z,98841.20
2023-04-24T17:23:12.025Z,98842.77
2023-04-24T17:25:42.208Z,98838.20
2023-04-24T17:28:27.913Z,98837.98
2023-04-24T17:31:00.253Z,98842.27
2023-04-24T17:33:29.616Z,98841.86
2023-04-24T17:36:03.609Z,98842.69
2023-04-24T17:38:36.781Z,98847.23
2023-04-24T17:41:07.762Z,98853.88
2023-04-24T17:43:39.204Z,98869.17
2023-04-24T17:46:09.531Z,98899.73
2023-04-24T17:48:42.214Z,98920.83
2023-04-24T17:51:12.578Z,98933.41
2023-04-24T17:53:42.261Z,98939.46
2023-04-24T17:56:15.963Z,98945.01
2023-04-24T17:58:45.320Z,98947.28
2023-04-24T18:01:31.128Z,98944.79
2023-04-24T18:04:03.240Z,98949.63
2023-04-24T18:06:33.116Z,98947.42
2023-04-24T18:12:32.370Z,98959.69
2023-04-24T18:15:21.160Z,98965.88
2023-04-24T18:17:57.046Z,98975.02
2023-04-24T18:20:36.448Z,98985.09
2023-04-24T18:23:09.270Z,98981.81
2023-04-24T18:25:40.445Z,98979.69
2023-04-24T18:28:15.679Z,98984.82
2023-04-24T18:30:47.724Z,98984.48
2023-04-24T18:33:19.400Z,98982.02
2023-04-24T18:35:52.306Z,98982.58
2023-04-24T18:38:26.332Z,98980.83
2023-04-24T18:41:00.376Z,98981.48
2023-04-24T18:43:40.436Z,98981.70
2023-04-24T18:46:15.974Z,98982.52
2023-04-24T18:48:49.197Z,98981.92
2023-04-24T18:51:26.862Z,98974.17
2023-04-24T18:53:57.668Z,98975.63
2023-04-24T18:56:30.260Z,98976.48
2023-04-24T18:59:00.781Z,98970.66
2023-04-24T19:01:45.795Z,98969.71
2023-04-24T19:07:31.157Z,98963.36
2023-04-24T19:10:12.208Z,98966.76
2023-04-24T19:12:45.950Z,98966.02
2023-04-24T19:15:20.718Z,98966.73
2023-04-24T19:17:58.883Z,98964.05
2023-04-24T19:20:45.333Z,98959.27
2023-04-24T19:23:19.685Z,98956.20
2023-04-24T19:25:51.101Z,98953.80
2023-04-24T19:28:22.500Z,98956.41
2023-04-24T19:30:53.787Z,98956.16
2023-04-24T19:33:26.104Z,98953.58
2023-04-24T19:36:00.811Z,98951.54
2023-04-24T19:38:35.863Z,98955.39
2023-04-24T19:41:08.665Z,98956.98
2023-04-24T19:43:46.196Z,98949.32
2023-04-24T19:46:23.895Z,98939.23
2023-04-24T19:49:00.495Z,98938.15
2023-04-24T19:51:29.675Z,98935.69
2023-04-24T19:54:00.110Z,98934.27
2023-04-24T19:56:28.986Z,98936.49
2023-04-24T19:59:22.503Z,98928.72
2023-04-24T20:01:53.077Z,98923.80
2023-04-24T20:04:23.509Z,98920.50
2023-04-24T20:06:51.697Z,98919.35
2023-04-24T20:09:19.886Z,98919.41
2023-04-24T20:11:51.523Z,98917.63
2023-04-24T20:14:22.647Z,98915.40
2023-04-24T20:16:55.580Z,98909.20
2023-04-24T20:19:24.671Z,98910.48
2023-04-24T20:21:55.153Z,98906.02
2023-04-24T20:24:29.506Z,98896.17
2023-04-24T20:26:57.574Z,98896.11
2023-04-24T20:29:26.113Z,98890.19
2023-04-24T20:31:55.153Z,98892.88
2023-04-24T20:34:24.243Z,98902.31
2023-04-24T20:36:52.443Z,98911.00
2023-04-24T20:39:21.003Z,98909.44
2023-04-24T20:41:50.635Z,98909.17
2023-04-24T20:44:18.410Z,98917.44
2023-04-24T20:46:47.265Z,98918.36
2023-04-24T20:49:17.993Z,98916.88
2023-04-24T20:51:45.977Z,98914.80
2023-04-24T20:54:13.871Z,98913.32
2023-04-24T20:56:44.041Z,98904.08
2023-04-24T20:59:11.994Z,98912.49
2023-04-24T21:01:48.222Z,98905.52
2023-04-24T21:04:18.402Z,98894.74
2023-04-24T21:06:47.308Z,98886.20
2023-04-24T21:09:18.717Z,98887.73
2023-04-24T21:11:48.183Z,98898.67
2023-04-24T21:14:17.182Z,98906.50
2023-04-24T21:16:47.226Z,98902.27
2023-04-24T21:19:16.542Z,98901.84
2023-04-24T21:21:45.856Z,98896.21
2023-04-24T21:24:14.107Z,98894.36
2023-04-24T21:26:44.799Z,98890.48
2023-04-24T21:29:13.949Z,98896.98
2023-04-24T21:31:43.022Z,98894.08
2023-04-24T21:34:11.086Z,98897.56
2023-04-24T21:36:39.533Z,98899.99
2023-04-24T21:39:09.070Z,98899.83
2023-04-24T21:41:38.557Z,98904.76
2023-04-24T21:44:08.737Z,98901.73
2023-04-24T21:46:37.215Z,98897.45
2023-04-24T21:49:05.118Z,98894.21
2023-04-24T21:51:35.395Z,98888.46
2023-04-24T21:54:03.472Z,98881.75
2023-04-24T21:56:35.866Z,98883.64
2023-04-24T21:59:04.481Z,98884.71
2023-04-24T22:01:34.086Z,98883.12
2023-04-24T22:04:04.673Z,98881.04
2023-04-24T22:06:33.562Z,98879.73
2023-04-24T22:09:01.068Z,98880.58
2023-04-24T22:11:30.811Z,98881.34
2023-04-24T22:14:00.868Z,98886.06
2023-04-24T22:16:31.250Z,98888.27
2023-04-24T22:19:01.018Z,98888.50
2023-04-24T22:21:33.802Z,98896.48
2023-04-24T22:24:05.413Z,98892.91
2023-04-24T22:26:33.796Z,98894.71
2023-04-24T22:29:01.858Z,98895.40
2023-04-24T22:31:34.226Z,98898.38
2023-04-24T22:34:02.816Z,98896.30
2023-04-24T22:36:33.188Z,98896.41
2023-04-24T22:39:01.362Z,98897.23
2023-04-24T22:41:29.882Z,98898.88
2023-04-24T22:44:00.658Z,98895.80
2023-04-24T22:46:30.733Z,98897.61
2023-04-24T22:49:01.223Z,98894.50
2023-04-24T22:51:33.128Z,98896.92
2023-04-24T22:54:04.866Z,98894.95
2023-04-24T22:56:33.905Z,98898.27
2023-04-24T22:59:04.455Z,98894.63
2023-04-24T23:01:35.024Z,98894.05
2023-04-24T23:04:04.227Z,98893.81
2023-04-24T23:06:32.474Z,98893.91
2023-04-24T23:09:02.356Z,98892.29
2023-04-24T23:11:33.354Z,98888.44
2023-04-24T23:14:02.835Z,98885.59
2023-04-24T23:16:32.698Z,98882.64
2023-04-24T23:19:01.590Z,98882.64
2023-04-24T23:21:29.206Z,98879.88
2023-04-24T23:23:57.561Z,98884.11
2023-04-24T23:26:27.750Z,98887.00
2023-04-24T23:28:58.084Z,98891.20
2023-04-24T23:31:28.789Z,98886.23
2023-04-24T23:33:56.672Z,98886.22
2023-04-24T23:36:24.597Z,98885.85
2023-04-24T23:38:53.652Z,98888.95
2023-04-24T23:41:22.464Z,98890.18
2023-04-24T23:43:52.389Z,98888.87
2023-04-24T23:46:21.638Z,98893.14
2023-04-24T23:48:53.031Z,98890.30
2023-04-24T23:51:21.200Z,98890.10
2023-04-24T23:53:50.221Z,98889.30
2023-04-24T23:56:21.994Z,98887.15
2023-04-24T23:58:51.626Z,98890.05
